sensor_id;sensor_type;location;lat;lon;timestamp;P1;durP1;ratioP1;P2;durP2;ratioP2
48263;SDS011;34086;51.076;13.722;2022-09-02T00:00:55;5.28;;;4.28;;
48263;SDS011;34086;51.076;13.722;2022-09-02T00:01:59;5.00;;;4.00;;
48263;SDS011;34086;51.076;13.722;2022-09-02T00:03:00;4.70;;;4.20;;
48263;SDS011;34086;51.076;13.722;2022-09-02T00:04:02;5.25;;;4.25;;
48263;SDS011;34086;51.076;13.722;2022-09-02T00:05:16;4.25;;;3.88;;
48263;SDS011;34086;51.076;13.722;2022-09-02T00:06:17;5.68;;;4.38;;
48263;SDS011;34086;51.076;13.722;2022-09-02T00:07:18;6.03;;;4.55;;
48263;SDS011;34086;51.076;13.722;2022-09-02T00:08:18;5.13;;;4.22;;
48263;SDS011;34086;51.076;13.722;2022-09-02T00:09:20;5.03;;;4.10;;
48263;SDS011;34086;51.076;13.722;2022-09-02T00:10:23;4.28;;;3.88;;
48263;SDS011;34086;51.076;13.722;2022-09-02T00:11:26;4.78;;;4.28;;
48263;SDS011;34086;51.076;13.722;2022-09-02T00:12:36;5.70;;;4.40;;
48263;SDS011;34086;51.076;13.722;2022-09-02T00:13:36;6.53;;;4.50;;
48263;SDS011;34086;51.076;13.722;2022-09-02T00:14:37;6.38;;;4.47;;
48263;SDS011;34086;51.076;13.722;2022-09-02T00:15:38;4.57;;;4.10;;
48263;SDS011;34086;51.076;13.722;2022-09-02T00:16:40;4.75;;;4.28;;
48263;SDS011;34086;51.076;13.722;2022-09-02T00:17:41;4.32;;;3.92;;
48263;SDS011;34086;51.076;13.722;2022-09-02T00:18:42;6.07;;;4.65;;
48263;SDS011;34086;51.076;13.722;2022-09-02T00:19:43;6.88;;;4.05;;
48263;SDS011;34086;51.076;13.722;2022-09-02T00:20:45;5.38;;;4.10;;
48263;SDS011;34086;51.076;13.722;2022-09-02T00:21:47;6.38;;;4.20;;
48263;SDS011;34086;51.076;13.722;2022-09-02T00:22:49;6.22;;;4.07;;
48263;SDS011;34086;51.076;13.722;2022-09-02T00:23:50;6.97;;;4.22;;
48263;SDS011;34086;51.076;13.722;2022-09-02T00:24:55;5.18;;;4.55;;
48263;SDS011;34086;51.076;13.722;2022-09-02T00:25:59;7.15;;;4.50;;
48263;SDS011;34086;51.076;13.722;2022-09-02T00:27:03;6.95;;;4.50;;
48263;SDS011;34086;51.076;13.722;2022-09-02T00:28:10;5.00;;;4.35;;
48263;SDS011;34086;51.076;13.722;2022-09-02T00:29:42;4.90;;;4.40;;
48263;SDS011;34086;51.076;13.722;2022-09-02T00:30:50;5.68;;;4.38;;
48263;SDS011;34086;51.076;13.722;2022-09-02T00:31:52;5.80;;;4.53;;
48263;SDS011;34086;51.076;13.722;2022-09-02T00:33:04;5.40;;;4.68;;
48263;SDS011;34086;51.076;13.722;2022-09-02T00:34:31;6.75;;;4.40;;
48263;SDS011;34086;51.076;13.722;2022-09-02T00:35:46;5.97;;;4.63;;
48263;SDS011;34086;51.076;13.722;2022-09-02T00:37:18;6.78;;;4.65;;
48263;SDS011;34086;51.076;13.722;2022-09-02T00:38:20;6.70;;;4.82;;
48263;SDS011;34086;51.076;13.722;2022-09-02T00:39:21;7.65;;;4.72;;
48263;SDS011;34086;51.076;13.722;2022-09-02T00:40:22;7.53;;;5.00;;
48263;SDS011;34086;51.076;13.722;2022-09-02T00:41:23;6.15;;;4.80;;
48263;SDS011;34086;51.076;13.722;2022-09-02T00:42:28;5.10;;;4.28;;
48263;SDS011;34086;51.076;13.722;2022-09-02T00:43:40;6.47;;;4.50;;
48263;SDS011;34086;51.076;13.722;2022-09-02T00:44:47;5.22;;;4.72;;
48263;SDS011;34086;51.076;13.722;2022-09-02T00:45:49;6.35;;;4.75;;
48263;SDS011;34086;51.076;13.722;2022-09-02T00:46:49;6.88;;;4.40;;
48263;SDS011;34086;51.076;13.722;2022-09-02T00:47:50;5.18;;;4.32;;
48263;SDS011;34086;51.076;13.722;2022-09-02T00:48:55;5.32;;;4.80;;
48263;SDS011;34086;51.076;13.722;2022-09-02T00:49:59;5.50;;;4.50;;
48263;SDS011;34086;51.076;13.722;2022-09-02T00:51:03;5.13;;;4.30;;
48263;SDS011;34086;51.076;13.722;2022-09-02T00:52:06;6.15;;;4.70;;
48263;SDS011;34086;51.076;13.722;2022-09-02T00:53:21;5.60;;;4.60;;
48263;SDS011;34086;51.076;13.722;2022-09-02T00:54:23;4.88;;;4.38;;
48263;SDS011;34086;51.076;13.722;2022-09-02T00:55:27;5.63;;;4.70;;
48263;SDS011;34086;51.076;13.722;2022-09-02T00:56:30;5.93;;;4.38;;
48263;SDS011;34086;51.076;13.722;2022-09-02T00:57:36;5.60;;;5.05;;
48263;SDS011;34086;51.076;13.722;2022-09-02T00:58:45;5.97;;;4.63;;
48263;SDS011;34086;51.076;13.722;2022-09-02T00:59:49;6.03;;;4.80;;
48263;SDS011;34086;51.076;13.722;2022-09-02T01:01:09;6.75;;;4.60;;
48263;SDS011;34086;51.076;13.722;2022-09-02T01:02:13;6.00;;;4.70;;
48263;SDS011;34086;51.076;13.722;2022-09-02T01:03:17;5.75;;;4.70;;
48263;SDS011;34086;51.076;13.722;2022-09-02T01:04:20;7.03;;;4.70;;
48263;SDS011;34086;51.076;13.722;2022-09-02T01:05:21;7.18;;;4.70;;
48263;SDS011;34086;51.076;13.722;2022-09-02T01:06:24;5.75;;;4.70;;
48263;SDS011;34086;51.076;13.722;2022-09-02T01:07:27;7.80;;;4.75;;
48263;SDS011;34086;51.076;13.722;2022-09-02T01:08:33;6.28;;;4.70;;
48263;SDS011;34086;51.076;13.722;2022-09-02T01:09:36;5.75;;;4.95;;
48263;SDS011;34086;51.076;13.722;2022-09-02T01:10:36;5.43;;;4.90;;
48263;SDS011;34086;51.076;13.722;2022-09-02T01:11:47;6.93;;;5.20;;
48263;SDS011;34086;51.076;13.722;2022-09-02T01:12:57;6.20;;;4.95;;
48263;SDS011;34086;51.076;13.722;2022-09-02T01:13:59;8.00;;;5.10;;
48263;SDS011;34086;51.076;13.722;2022-09-02T01:15:01;5.90;;;4.90;;
48263;SDS011;34086;51.076;13.722;2022-09-02T01:17:10;5.95;;;4.80;;
48263;SDS011;34086;51.076;13.722;2022-09-02T01:18:16;7.55;;;4.82;;
48263;SDS011;34086;51.076;13.722;2022-09-02T01:19:41;5.68;;;4.80;;
48263;SDS011;34086;51.076;13.722;2022-09-02T01:20:45;6.15;;;4.65;;
48263;SDS011;34086;51.076;13.722;2022-09-02T01:21:47;6.65;;;4.47;;
48263;SDS011;34086;51.076;13.722;2022-09-02T01:22:49;7.25;;;4.65;;
48263;SDS011;34086;51.076;13.722;2022-09-02T01:23:51;6.60;;;4.88;;
48263;SDS011;34086;51.076;13.722;2022-09-02T01:24:53;5.32;;;4.72;;
48263;SDS011;34086;51.076;13.722;2022-09-02T01:25:56;6.63;;;5.10;;
48263;SDS011;34086;51.076;13.722;2022-09-02T01:26:58;5.20;;;4.65;;
48263;SDS011;34086;51.076;13.722;2022-09-02T01:28:04;6.20;;;4.90;;
48263;SDS011;34086;51.076;13.722;2022-09-02T01:29:07;5.85;;;4.88;;
48263;SDS011;34086;51.076;13.722;2022-09-02T01:30:09;5.57;;;4.80;;
48263;SDS011;34086;51.076;13.722;2022-09-02T01:31:13;7.13;;;5.00;;
48263;SDS011;34086;51.076;13.722;2022-09-02T01:32:14;5.90;;;5.10;;
48263;SDS011;34086;51.076;13.722;2022-09-02T01:33:15;6.82;;;5.28;;
48263;SDS011;34086;51.076;13.722;2022-09-02T01:34:17;6.25;;;5.03;;
48263;SDS011;34086;51.076;13.722;2022-09-02T01:35:18;5.57;;;5.07;;
48263;SDS011;34086;51.076;13.722;2022-09-02T01:36:19;6.45;;;5.10;;
48263;SDS011;34086;51.076;13.722;2022-09-02T01:37:20;5.70;;;5.10;;
48263;SDS011;34086;51.076;13.722;2022-09-02T01:38:22;5.35;;;4.85;;
48263;SDS011;34086;51.076;13.722;2022-09-02T01:39:23;7.28;;;5.10;;
48263;SDS011;34086;51.076;13.722;2022-09-02T01:40:24;8.10;;;5.30;;
48263;SDS011;34086;51.076;13.722;2022-09-02T01:41:26;5.80;;;5.20;;
48263;SDS011;34086;51.076;13.722;2022-09-02T01:42:27;7.05;;;5.30;;
48263;SDS011;34086;51.076;13.722;2022-09-02T01:43:27;5.85;;;5.00;;
48263;SDS011;34086;51.076;13.722;2022-09-02T01:44:29;5.95;;;5.35;;
48263;SDS011;34086;51.076;13.722;2022-09-02T01:45:29;6.55;;;5.50;;
48263;SDS011;34086;51.076;13.722;2022-09-02T01:46:31;5.80;;;5.18;;
48263;SDS011;34086;51.076;13.722;2022-09-02T01:47:34;5.78;;;4.93;;
48263;SDS011;34086;51.076;13.722;2022-09-02T01:48:35;5.75;;;5.25;;
48263;SDS011;34086;51.076;13.722;2022-09-02T01:49:36;5.82;;;4.93;;
48263;SDS011;34086;51.076;13.722;2022-09-02T01:50:37;5.93;;;5.28;;
48263;SDS011;34086;51.076;13.722;2022-09-02T01:51:41;6.00;;;5.13;;
48263;SDS011;34086;51.076;13.722;2022-09-02T01:52:42;5.70;;;5.10;;
48263;SDS011;34086;51.076;13.722;2022-09-02T01:53:43;5.57;;;5.00;;
48263;SDS011;34086;51.076;13.722;2022-09-02T01:54:44;5.60;;;5.10;;
48263;SDS011;34086;51.076;13.722;2022-09-02T01:55:45;6.75;;;5.10;;
48263;SDS011;34086;51.076;13.722;2022-09-02T01:56:46;5.70;;;5.15;;
48263;SDS011;34086;51.076;13.722;2022-09-02T01:57:47;8.10;;;5.00;;
48263;SDS011;34086;51.076;13.722;2022-09-02T01:58:48;5.57;;;5.00;;
48263;SDS011;34086;51.076;13.722;2022-09-02T01:59:49;7.18;;;5.22;;
48263;SDS011;34086;51.076;13.722;2022-09-02T02:00:51;6.25;;;4.97;;
48263;SDS011;34086;51.076;13.722;2022-09-02T02:01:52;6.47;;;5.18;;
48263;SDS011;34086;51.076;13.722;2022-09-02T02:02:54;7.15;;;5.10;;
48263;SDS011;34086;51.076;13.722;2022-09-02T02:03:55;6.82;;;5.18;;
48263;SDS011;34086;51.076;13.722;2022-09-02T02:04:57;7.15;;;5.13;;
48263;SDS011;34086;51.076;13.722;2022-09-02T02:05:59;6.47;;;5.13;;
48263;SDS011;34086;51.076;13.722;2022-09-02T02:07:01;7.45;;;5.25;;
48263;SDS011;34086;51.076;13.722;2022-09-02T02:08:02;7.05;;;5.13;;
48263;SDS011;34086;51.076;13.722;2022-09-02T02:09:04;5.90;;;4.93;;
48263;SDS011;34086;51.076;13.722;2022-09-02T02:10:06;7.85;;;4.90;;
48263;SDS011;34086;51.076;13.722;2022-09-02T02:11:07;5.20;;;4.70;;
48263;SDS011;34086;51.076;13.722;2022-09-02T02:12:10;5.10;;;4.60;;
48263;SDS011;34086;51.076;13.722;2022-09-02T02:13:10;5.70;;;4.97;;
48263;SDS011;34086;51.076;13.722;2022-09-02T02:14:12;5.20;;;4.70;;
48263;SDS011;34086;51.076;13.722;2022-09-02T02:15:22;6.75;;;4.88;;
48263;SDS011;34086;51.076;13.722;2022-09-02T02:16:23;5.60;;;5.00;;
48263;SDS011;34086;51.076;13.722;2022-09-02T02:17:24;6.55;;;5.40;;
48263;SDS011;34086;51.076;13.722;2022-09-02T02:18:25;5.60;;;4.75;;
48263;SDS011;34086;51.076;13.722;2022-09-02T02:19:26;5.70;;;5.00;;
48263;SDS011;34086;51.076;13.722;2022-09-02T02:20:27;5.35;;;4.85;;
48263;SDS011;34086;51.076;13.722;2022-09-02T02:21:28;8.23;;;5.07;;
48263;SDS011;34086;51.076;13.722;2022-09-02T02:22:29;6.03;;;5.28;;
48263;SDS011;34086;51.076;13.722;2022-09-02T02:23:30;5.93;;;4.93;;
48263;SDS011;34086;51.076;13.722;2022-09-02T02:24:31;5.82;;;4.60;;
48263;SDS011;34086;51.076;13.722;2022-09-02T02:25:34;5.07;;;4.53;;
48263;SDS011;34086;51.076;13.722;2022-09-02T02:26:35;6.93;;;5.00;;
48263;SDS011;34086;51.076;13.722;2022-09-02T02:27:37;6.18;;;4.95;;
48263;SDS011;34086;51.076;13.722;2022-09-02T02:28:40;5.57;;;4.88;;
48263;SDS011;34086;51.076;13.722;2022-09-02T02:29:41;5.35;;;4.85;;
48263;SDS011;34086;51.076;13.722;2022-09-02T02:30:42;5.95;;;5.00;;
48263;SDS011;34086;51.076;13.722;2022-09-02T02:31:44;5.57;;;5.03;;
48263;SDS011;34086;51.076;13.722;2022-09-02T02:32:48;8.27;;;4.68;;
48263;SDS011;34086;51.076;13.722;2022-09-02T02:33:51;6.78;;;4.93;;
48263;SDS011;34086;51.076;13.722;2022-09-02T02:34:52;6.75;;;4.90;;
48263;SDS011;34086;51.076;13.722;2022-09-02T02:35:54;6.68;;;4.95;;
48263;SDS011;34086;51.076;13.722;2022-09-02T02:36:55;5.45;;;4.95;;
48263;SDS011;34086;51.076;13.722;2022-09-02T02:37:56;5.40;;;4.90;;
48263;SDS011;34086;51.076;13.722;2022-09-02T02:38:57;5.70;;;4.85;;
48263;SDS011;34086;51.076;13.722;2022-09-02T02:39:58;6.32;;;4.95;;
48263;SDS011;34086;51.076;13.722;2022-09-02T02:41:01;6.78;;;5.20;;
48263;SDS011;34086;51.076;13.722;2022-09-02T02:42:04;6.13;;;5.07;;
48263;SDS011;34086;51.076;13.722;2022-09-02T02:43:06;6.97;;;5.13;;
48263;SDS011;34086;51.076;13.722;2022-09-02T02:44:07;8.93;;;4.70;;
48263;SDS011;34086;51.076;13.722;2022-09-02T02:45:10;5.57;;;4.75;;
48263;SDS011;34086;51.076;13.722;2022-09-02T02:46:12;5.20;;;4.70;;
48263;SDS011;34086;51.076;13.722;2022-09-02T02:47:14;6.30;;;4.72;;
48263;SDS011;34086;51.076;13.722;2022-09-02T02:48:15;5.82;;;4.72;;
48263;SDS011;34086;51.076;13.722;2022-09-02T02:49:16;6.60;;;4.95;;
48263;SDS011;34086;51.076;13.722;2022-09-02T02:50:18;5.35;;;4.55;;
48263;SDS011;34086;51.076;13.722;2022-09-02T02:51:21;7.90;;;5.05;;
48263;SDS011;34086;51.076;13.722;2022-09-02T02:52:23;6.88;;;4.95;;
48263;SDS011;34086;51.076;13.722;2022-09-02T02:53:26;5.40;;;4.75;;
48263;SDS011;34086;51.076;13.722;2022-09-02T02:54:29;5.47;;;4.75;;
48263;SDS011;34086;51.076;13.722;2022-09-02T02:55:32;5.63;;;4.88;;
48263;SDS011;34086;51.076;13.722;2022-09-02T02:56:33;6.32;;;5.13;;
48263;SDS011;34086;51.076;13.722;2022-09-02T02:57:36;6.03;;;5.35;;
48263;SDS011;34086;51.076;13.722;2022-09-02T02:58:40;6.78;;;5.10;;
48263;SDS011;34086;51.076;13.722;2022-09-02T02:59:41;6.47;;;5.40;;
48263;SDS011;34086;51.076;13.722;2022-09-02T03:00:45;5.78;;;5.28;;
48263;SDS011;34086;51.076;13.722;2022-09-02T03:01:47;6.40;;;5.15;;
48263;SDS011;34086;51.076;13.722;2022-09-02T03:02:50;6.15;;;5.10;;
48263;SDS011;34086;51.076;13.722;2022-09-02T03:03:58;6.35;;;5.30;;
48263;SDS011;34086;51.076;13.722;2022-09-02T03:04:59;6.10;;;5.50;;
48263;SDS011;34086;51.076;13.722;2022-09-02T03:06:00;5.80;;;5.20;;
48263;SDS011;34086;51.076;13.722;2022-09-02T03:07:02;6.80;;;5.45;;
48263;SDS011;34086;51.076;13.722;2022-09-02T03:08:07;7.38;;;5.30;;
48263;SDS011;34086;51.076;13.722;2022-09-02T03:09:09;6.30;;;4.90;;
48263;SDS011;34086;51.076;13.722;2022-09-02T03:10:11;7.60;;;5.05;;
48263;SDS011;34086;51.076;13.722;2022-09-02T03:11:14;6.90;;;5.18;;
48263;SDS011;34086;51.076;13.722;2022-09-02T03:12:16;5.57;;;5.05;;
48263;SDS011;34086;51.076;13.722;2022-09-02T03:13:17;6.15;;;4.55;;
48263;SDS011;34086;51.076;13.722;2022-09-02T03:14:18;6.47;;;5.00;;
48263;SDS011;34086;51.076;13.722;2022-09-02T03:15:20;7.70;;;5.05;;
48263;SDS011;34086;51.076;13.722;2022-09-02T03:16:24;5.55;;;4.68;;
48263;SDS011;34086;51.076;13.722;2022-09-02T03:17:26;5.85;;;5.03;;
48263;SDS011;34086;51.076;13.722;2022-09-02T03:18:28;6.90;;;4.80;;
48263;SDS011;34086;51.076;13.722;2022-09-02T03:19:31;5.40;;;4.90;;
48263;SDS011;34086;51.076;13.722;2022-09-02T03:20:32;5.40;;;4.90;;
48263;SDS011;34086;51.076;13.722;2022-09-02T03:21:36;5.78;;;5.18;;
48263;SDS011;34086;51.076;13.722;2022-09-02T03:22:38;6.50;;;5.28;;
48263;SDS011;34086;51.076;13.722;2022-09-02T03:23:41;5.93;;;5.18;;
48263;SDS011;34086;51.076;13.722;2022-09-02T03:24:42;5.70;;;5.10;;
48263;SDS011;34086;51.076;13.722;2022-09-02T03:25:44;5.55;;;4.93;;
48263;SDS011;34086;51.076;13.722;2022-09-02T03:27:06;5.38;;;4.88;;
48263;SDS011;34086;51.076;13.722;2022-09-02T03:28:06;5.40;;;4.90;;
48263;SDS011;34086;51.076;13.722;2022-09-02T03:29:07;8.10;;;5.05;;
48263;SDS011;34086;51.076;13.722;2022-09-02T03:30:09;6.13;;;5.10;;
48263;SDS011;34086;51.076;13.722;2022-09-02T03:31:15;5.93;;;4.95;;
48263;SDS011;34086;51.076;13.722;2022-09-02T03:32:17;5.65;;;4.70;;
48263;SDS011;34086;51.076;13.722;2022-09-02T03:33:18;6.15;;;5.05;;
48263;SDS011;34086;51.076;13.722;2022-09-02T03:34:19;5.00;;;4.50;;
48263;SDS011;34086;51.076;13.722;2022-09-02T03:35:20;5.70;;;4.80;;
48263;SDS011;34086;51.076;13.722;2022-09-02T03:36:23;5.93;;;5.07;;
48263;SDS011;34086;51.076;13.722;2022-09-02T03:37:26;5.20;;;4.70;;
48263;SDS011;34086;51.076;13.722;2022-09-02T03:38:27;6.07;;;4.85;;
48263;SDS011;34086;51.076;13.722;2022-09-02T03:39:28;7.88;;;4.95;;
48263;SDS011;34086;51.076;13.722;2022-09-02T03:40:29;6.00;;;5.05;;
48263;SDS011;34086;51.076;13.722;2022-09-02T03:41:29;5.50;;;4.80;;
48263;SDS011;34086;51.076;13.722;2022-09-02T03:42:32;6.57;;;4.97;;
48263;SDS011;34086;51.076;13.722;2022-09-02T03:43:32;6.25;;;5.10;;
48263;SDS011;34086;51.076;13.722;2022-09-02T03:44:33;5.57;;;4.78;;
48263;SDS011;34086;51.076;13.722;2022-09-02T03:45:34;6.32;;;5.10;;
48263;SDS011;34086;51.076;13.722;2022-09-02T03:46:38;5.28;;;4.82;;
48263;SDS011;34086;51.076;13.722;2022-09-02T03:47:42;6.03;;;5.03;;
48263;SDS011;34086;51.076;13.722;2022-09-02T03:48:51;5.30;;;4.80;;
48263;SDS011;34086;51.076;13.722;2022-09-02T03:49:54;5.90;;;4.88;;
48263;SDS011;34086;51.076;13.722;2022-09-02T03:50:55;7.60;;;5.20;;
48263;SDS011;34086;51.076;13.722;2022-09-02T03:51:56;7.20;;;5.57;;
48263;SDS011;34086;51.076;13.722;2022-09-02T03:52:57;5.90;;;5.10;;
48263;SDS011;34086;51.076;13.722;2022-09-02T03:53:59;5.53;;;4.97;;
48263;SDS011;34086;51.076;13.722;2022-09-02T03:55:03;5.63;;;4.97;;
48263;SDS011;34086;51.076;13.722;2022-09-02T03:56:06;5.60;;;5.10;;
48263;SDS011;34086;51.076;13.722;2022-09-02T03:57:11;5.80;;;5.15;;
48263;SDS011;34086;51.076;13.722;2022-09-02T03:58:12;6.45;;;5.38;;
48263;SDS011;34086;51.076;13.722;2022-09-02T03:59:14;5.70;;;5.10;;
48263;SDS011;34086;51.076;13.722;2022-09-02T04:00:15;5.40;;;4.90;;
48263;SDS011;34086;51.076;13.722;2022-09-02T04:01:23;5.80;;;5.20;;
48263;SDS011;34086;51.076;13.722;2022-09-02T04:02:25;6.90;;;5.22;;
48263;SDS011;34086;51.076;13.722;2022-09-02T04:03:26;6.13;;;5.15;;
48263;SDS011;34086;51.076;13.722;2022-09-02T04:04:27;5.85;;;4.93;;
48263;SDS011;34086;51.076;13.722;2022-09-02T04:05:28;7.07;;;5.32;;
48263;SDS011;34086;51.076;13.722;2022-09-02T04:06:31;6.32;;;5.22;;
48263;SDS011;34086;51.076;13.722;2022-09-02T04:07:33;5.95;;;5.30;;
48263;SDS011;34086;51.076;13.722;2022-09-02T04:08:34;7.15;;;5.45;;
48263;SDS011;34086;51.076;13.722;2022-09-02T04:09:36;7.50;;;5.40;;
48263;SDS011;34086;51.076;13.722;2022-09-02T04:10:36;5.82;;;5.25;;
48263;SDS011;34086;51.076;13.722;2022-09-02T04:11:38;6.07;;;5.45;;
48263;SDS011;34086;51.076;13.722;2022-09-02T04:12:42;5.82;;;5.22;;
48263;SDS011;34086;51.076;13.722;2022-09-02T04:13:44;6.05;;;5.03;;
48263;SDS011;34086;51.076;13.722;2022-09-02T04:14:49;6.00;;;5.40;;
48263;SDS011;34086;51.076;13.722;2022-09-02T04:15:51;5.78;;;5.07;;
48263;SDS011;34086;51.076;13.722;2022-09-02T04:16:55;7.28;;;5.28;;
48263;SDS011;34086;51.076;13.722;2022-09-02T04:17:56;7.75;;;5.60;;
48263;SDS011;34086;51.076;13.722;2022-09-02T04:18:58;5.88;;;5.25;;
48263;SDS011;34086;51.076;13.722;2022-09-02T04:20:02;7.07;;;5.18;;
48263;SDS011;34086;51.076;13.722;2022-09-02T04:21:06;6.95;;;5.72;;
48263;SDS011;34086;51.076;13.722;2022-09-02T04:22:09;6.78;;;5.20;;
48263;SDS011;34086;51.076;13.722;2022-09-02T04:23:11;7.93;;;5.28;;
48263;SDS011;34086;51.076;13.722;2022-09-02T04:24:14;6.22;;;5.30;;
48263;SDS011;34086;51.076;13.722;2022-09-02T04:25:19;6.53;;;5.50;;
48263;SDS011;34086;51.076;13.722;2022-09-02T04:26:20;7.28;;;5.30;;
48263;SDS011;34086;51.076;13.722;2022-09-02T04:27:25;7.25;;;5.32;;
48263;SDS011;34086;51.076;13.722;2022-09-02T04:28:27;6.50;;;5.35;;
48263;SDS011;34086;51.076;13.722;2022-09-02T04:29:28;5.75;;;5.07;;
48263;SDS011;34086;51.076;13.722;2022-09-02T04:30:31;5.68;;;5.05;;
48263;SDS011;34086;51.076;13.722;2022-09-02T04:31:32;6.20;;;5.22;;
48263;SDS011;34086;51.076;13.722;2022-09-02T04:32:33;5.90;;;5.20;;
48263;SDS011;34086;51.076;13.722;2022-09-02T04:33:36;6.43;;;5.20;;
48263;SDS011;34086;51.076;13.722;2022-09-02T04:34:39;6.20;;;5.00;;
48263;SDS011;34086;51.076;13.722;2022-09-02T04:35:43;7.47;;;5.45;;
48263;SDS011;34086;51.076;13.722;2022-09-02T04:36:48;7.38;;;5.15;;
48263;SDS011;34086;51.076;13.722;2022-09-02T04:37:51;8.20;;;5.32;;
48263;SDS011;34086;51.076;13.722;2022-09-02T04:38:52;7.65;;;5.30;;
48263;SDS011;34086;51.076;13.722;2022-09-02T04:39:57;6.90;;;5.63;;
48263;SDS011;34086;51.076;13.722;2022-09-02T04:40:58;9.98;;;5.93;;
48263;SDS011;34086;51.076;13.722;2022-09-02T04:42:05;7.05;;;6.35;;
48263;SDS011;34086;51.076;13.722;2022-09-02T04:43:14;8.05;;;6.65;;
48263;SDS011;34086;51.076;13.722;2022-09-02T04:44:15;9.32;;;7.07;;
48263;SDS011;34086;51.076;13.722;2022-09-02T04:45:20;7.85;;;6.38;;
48263;SDS011;34086;51.076;13.722;2022-09-02T04:46:22;6.80;;;6.05;;
48263;SDS011;34086;51.076;13.722;2022-09-02T04:47:24;6.88;;;5.88;;
48263;SDS011;34086;51.076;13.722;2022-09-02T04:48:28;6.93;;;5.80;;
48263;SDS011;34086;51.076;13.722;2022-09-02T04:49:32;8.52;;;6.07;;
48263;SDS011;34086;51.076;13.722;2022-09-02T04:50:34;6.60;;;5.93;;
48263;SDS011;34086;51.076;13.722;2022-09-02T04:51:36;8.90;;;5.60;;
48263;SDS011;34086;51.076;13.722;2022-09-02T04:52:38;6.30;;;5.65;;
48263;SDS011;34086;51.076;13.722;2022-09-02T04:53:39;8.00;;;5.90;;
48263;SDS011;34086;51.076;13.722;2022-09-02T04:54:43;7.13;;;5.25;;
48263;SDS011;34086;51.076;13.722;2022-09-02T04:55:44;6.05;;;5.18;;
48263;SDS011;34086;51.076;13.722;2022-09-02T04:56:47;7.25;;;5.20;;
48263;SDS011;34086;51.076;13.722;2022-09-02T04:57:48;6.00;;;5.20;;
48263;SDS011;34086;51.076;13.722;2022-09-02T04:58:49;8.07;;;5.15;;
48263;SDS011;34086;51.076;13.722;2022-09-02T04:59:53;7.75;;;5.25;;
48263;SDS011;34086;51.076;13.722;2022-09-02T05:01:08;7.85;;;5.38;;
48263;SDS011;34086;51.076;13.722;2022-09-02T05:02:23;7.40;;;5.25;;
48263;SDS011;34086;51.076;13.722;2022-09-02T05:03:24;6.18;;;5.45;;
48263;SDS011;34086;51.076;13.722;2022-09-02T05:04:28;8.10;;;5.55;;
48263;SDS011;34086;51.076;13.722;2022-09-02T05:05:34;6.32;;;5.32;;
48263;SDS011;34086;51.076;13.722;2022-09-02T05:06:36;6.30;;;5.32;;
48263;SDS011;34086;51.076;13.722;2022-09-02T05:07:39;6.65;;;5.20;;
48263;SDS011;34086;51.076;13.722;2022-09-02T05:08:41;5.60;;;4.82;;
48263;SDS011;34086;51.076;13.722;2022-09-02T05:09:43;7.47;;;5.40;;
48263;SDS011;34086;51.076;13.722;2022-09-02T05:10:44;8.27;;;5.07;;
48263;SDS011;34086;51.076;13.722;2022-09-02T05:11:47;10.15;;;5.35;;
48263;SDS011;34086;51.076;13.722;2022-09-02T05:12:49;6.35;;;4.70;;
48263;SDS011;34086;51.076;13.722;2022-09-02T05:13:51;8.93;;;4.68;;
48263;SDS011;34086;51.076;13.722;2022-09-02T05:14:54;5.28;;;4.28;;
48263;SDS011;34086;51.076;13.722;2022-09-02T05:15:57;6.30;;;4.00;;
48263;SDS011;34086;51.076;13.722;2022-09-02T05:16:58;5.38;;;3.97;;
48263;SDS011;34086;51.076;13.722;2022-09-02T05:18:00;4.50;;;4.10;;
48263;SDS011;34086;51.076;13.722;2022-09-02T05:19:06;6.50;;;4.10;;
48263;SDS011;34086;51.076;13.722;2022-09-02T05:20:13;5.50;;;3.60;;
48263;SDS011;34086;51.076;13.722;2022-09-02T05:21:15;6.63;;;4.00;;
48263;SDS011;34086;51.076;13.722;2022-09-02T05:22:16;6.25;;;4.00;;
48263;SDS011;34086;51.076;13.722;2022-09-02T05:23:17;4.28;;;3.45;;
48263;SDS011;34086;51.076;13.722;2022-09-02T05:24:19;4.43;;;3.50;;
48263;SDS011;34086;51.076;13.722;2022-09-02T05:25:20;3.80;;;3.40;;
48263;SDS011;34086;51.076;13.722;2022-09-02T05:26:22;4.88;;;3.75;;
48263;SDS011;34086;51.076;13.722;2022-09-02T05:27:25;7.43;;;4.00;;
48263;SDS011;34086;51.076;13.722;2022-09-02T05:28:25;5.75;;;3.60;;
48263;SDS011;34086;51.076;13.722;2022-09-02T05:29:26;4.50;;;3.70;;
48263;SDS011;34086;51.076;13.722;2022-09-02T05:30:29;4.15;;;3.42;;
48263;SDS011;34086;51.076;13.722;2022-09-02T05:31:31;7.25;;;3.80;;
48263;SDS011;34086;51.076;13.722;2022-09-02T05:32:32;5.47;;;3.67;;
48263;SDS011;34086;51.076;13.722;2022-09-02T05:33:34;5.57;;;3.60;;
48263;SDS011;34086;51.076;13.722;2022-09-02T05:34:38;6.10;;;3.88;;
48263;SDS011;34086;51.076;13.722;2022-09-02T05:35:40;5.50;;;3.60;;
48263;SDS011;34086;51.076;13.722;2022-09-02T05:36:43;5.07;;;3.70;;
48263;SDS011;34086;51.076;13.722;2022-09-02T05:37:44;7.28;;;4.10;;
48263;SDS011;34086;51.076;13.722;2022-09-02T05:38:45;5.07;;;3.90;;
48263;SDS011;34086;51.076;13.722;2022-09-02T05:39:47;4.93;;;3.63;;
48263;SDS011;34086;51.076;13.722;2022-09-02T05:40:49;5.78;;;4.00;;
48263;SDS011;34086;51.076;13.722;2022-09-02T05:41:50;4.30;;;3.90;;
48263;SDS011;34086;51.076;13.722;2022-09-02T05:42:51;5.43;;;4.20;;
48263;SDS011;34086;51.076;13.722;2022-09-02T05:43:54;5.72;;;4.20;;
48263;SDS011;34086;51.076;13.722;2022-09-02T05:45:01;6.03;;;4.40;;
48263;SDS011;34086;51.076;13.722;2022-09-02T05:46:03;5.25;;;4.47;;
48263;SDS011;34086;51.076;13.722;2022-09-02T05:47:06;6.00;;;4.30;;
48263;SDS011;34086;51.076;13.722;2022-09-02T05:48:07;5.03;;;4.53;;
48263;SDS011;34086;51.076;13.722;2022-09-02T05:49:26;4.43;;;4.00;;
48263;SDS011;34086;51.076;13.722;2022-09-02T05:50:32;6.72;;;4.80;;
48263;SDS011;34086;51.076;13.722;2022-09-02T05:51:46;5.72;;;4.63;;
48263;SDS011;34086;51.076;13.722;2022-09-02T05:52:52;4.65;;;4.18;;
48263;SDS011;34086;51.076;13.722;2022-09-02T05:53:55;5.00;;;4.50;;
48263;SDS011;34086;51.076;13.722;2022-09-02T05:54:58;4.78;;;4.30;;
48263;SDS011;34086;51.076;13.722;2022-09-02T05:56:02;5.05;;;4.43;;
48263;SDS011;34086;51.076;13.722;2022-09-02T05:57:06;6.00;;;4.55;;
48263;SDS011;34086;51.076;13.722;2022-09-02T05:58:10;6.05;;;4.55;;
48263;SDS011;34086;51.076;13.722;2022-09-02T05:59:11;7.38;;;4.60;;
48263;SDS011;34086;51.076;13.722;2022-09-02T06:00:13;5.88;;;4.82;;
48263;SDS011;34086;51.076;13.722;2022-09-02T06:01:14;8.20;;;4.45;;
48263;SDS011;34086;51.076;13.722;2022-09-02T06:02:17;5.22;;;4.20;;
48263;SDS011;34086;51.076;13.722;2022-09-02T06:03:18;5.03;;;4.53;;
48263;SDS011;34086;51.076;13.722;2022-09-02T06:04:21;5.82;;;4.72;;
48263;SDS011;34086;51.076;13.722;2022-09-02T06:05:22;4.93;;;4.43;;
48263;SDS011;34086;51.076;13.722;2022-09-02T06:06:31;5.22;;;4.50;;
48263;SDS011;34086;51.076;13.722;2022-09-02T06:07:32;6.65;;;5.10;;
48263;SDS011;34086;51.076;13.722;2022-09-02T06:08:35;7.18;;;4.80;;
48263;SDS011;34086;51.076;13.722;2022-09-02T06:09:36;6.05;;;5.10;;
48263;SDS011;34086;51.076;13.722;2022-09-02T06:10:41;5.78;;;4.70;;
48263;SDS011;34086;51.076;13.722;2022-09-02T06:11:44;5.80;;;4.47;;
48263;SDS011;34086;51.076;13.722;2022-09-02T06:12:49;5.38;;;4.88;;
48263;SDS011;34086;51.076;13.722;2022-09-02T06:13:55;6.18;;;4.65;;
48263;SDS011;34086;51.076;13.722;2022-09-02T06:14:57;5.90;;;4.47;;
48263;SDS011;34086;51.076;13.722;2022-09-02T06:15:59;6.82;;;4.47;;